createdAt,value
2023-03-20T00:02:29.414Z,22.20
2023-03-20T00:04:59.119Z,23.73
2023-03-20T00:07:30.183Z,21.67
2023-03-20T00:09:59.035Z,19.55
2023-03-20T00:12:27.877Z,20.38
2023-03-20T00:15:01.128Z,19.92
2023-03-20T00:17:30.846Z,21.45
2023-03-20T00:19:59.813Z,19.33
2023-03-20T00:22:29.548Z,23.42
2023-03-20T00:25:03.906Z,17.85
2023-03-20T00:27:32.544Z,24.17
2023-03-20T00:30:01.226Z,18.70
2023-03-20T00:32:31.957Z,23.08
2023-03-20T00:35:00.880Z,32.47
2023-03-20T00:37:29.609Z,24.17
2023-03-20T00:40:00.041Z,21.20
2023-03-20T00:42:29.357Z,25.00
2023-03-20T00:44:59.785Z,20.70
2023-03-20T00:47:28.993Z,19.40
2023-03-20T00:49:59.054Z,17.98
2023-03-20T00:52:29.089Z,24.88
2023-03-20T00:54:57.666Z,18.05
2023-03-20T00:57:29.873Z,30.05
2023-03-20T01:00:02.225Z,17.85
2023-03-20T01:02:31.836Z,19.52
2023-03-20T01:05:05.887Z,17.85
2023-03-20T01:10:05.774Z,17.95
2023-03-20T01:12:37.819Z,18.27
2023-03-20T01:15:17.774Z,18.42
2023-03-20T01:17:47.119Z,20.38
2023-03-20T01:20:22.126Z,17.48
2023-03-20T01:22:51.493Z,17.02
2023-03-20T01:25:20.306Z,18.58
2023-03-20T01:27:54.105Z,18.52
2023-03-20T01:30:26.868Z,19.17
2023-03-20T01:32:56.500Z,18.80
2023-03-20T01:35:29.700Z,18.65
2023-03-20T01:38:02.707Z,18.70
2023-03-20T01:40:41.447Z,21.48
2023-03-20T01:43:20.542Z,17.50
2023-03-20T01:48:37.970Z,19.50
2023-03-20T01:51:08.235Z,19.30
2023-03-20T01:53:37.052Z,19.25
2023-03-20T01:56:06.607Z,18.38
2023-03-20T01:58:47.546Z,20.33
2023-03-20T02:01:16.803Z,19.45
2023-03-20T02:03:52.016Z,18.88
2023-03-20T02:06:41.947Z,20.27
2023-03-20T02:09:17.864Z,19.83
2023-03-20T02:11:48.119Z,18.20
2023-03-20T02:16:57.757Z,18.85
2023-03-20T02:19:49.040Z,18.85
2023-03-20T02:22:47.986Z,18.13
2023-03-20T02:25:59.787Z,17.15
2023-03-20T02:28:53.960Z,17.35
2023-03-20T02:31:46.861Z,18.48
2023-03-20T02:34:52.703Z,18.02
2023-03-20T02:37:48.861Z,18.08
2023-03-20T02:40:27.674Z,17.58
2023-03-20T02:43:03.530Z,16.95
2023-03-20T02:45:40.006Z,16.83
2023-03-20T02:48:22.592Z,16.87
2023-03-20T02:50:54.964Z,17.48
2023-03-20T02:53:36.083Z,17.08
2023-03-20T02:56:12.949Z,17.70
2023-03-20T02:58:47.661Z,16.02
2023-03-20T03:01:22.272Z,16.80
2023-03-20T03:03:56.306Z,16.70
2023-03-20T03:06:31.716Z,16.75
2023-03-20T03:09:05.188Z,16.67
2023-03-20T03:11:37.531Z,17.48
2023-03-20T03:14:07.789Z,16.48
2023-03-20T03:16:39.617Z,17.27
2023-03-20T03:19:10.669Z,16.08
2023-03-20T03:21:41.891Z,16.42
2023-03-20T03:24:40.396Z,17.77
2023-03-20T03:27:18.771Z,17.15
2023-03-20T03:29:52.813Z,17.77
2023-03-20T03:32:27.645Z,17.95
2023-03-20T03:34:57.272Z,17.98
2023-03-20T03:37:40.125Z,18.17
2023-03-20T03:40:21.001Z,15.68
2023-03-20T03:42:58.189Z,17.95
2023-03-20T03:45:33.867Z,18.13
2023-03-20T03:48:08.583Z,17.17
2023-03-20T03:50:48.065Z,17.45
2023-03-20T03:53:22.401Z,17.23
2023-03-20T03:55:57.922Z,19.55
2023-03-20T03:58:30.543Z,20.38
2023-03-20T04:01:01.708Z,20.08
2023-03-20T04:03:34.103Z,20.65
2023-03-20T04:06:06.206Z,20.02
2023-03-20T04:08:35.552Z,21.20
2023-03-20T04:11:05.749Z,20.50
2023-03-20T04:13:34.444Z,20.48
2023-03-20T04:16:03.764Z,20.08
2023-03-20T04:18:32.758Z,20.58
2023-03-20T04:21:02.415Z,22.60
2023-03-20T04:23:31.083Z,22.55
2023-03-20T04:26:00.355Z,22.40
2023-03-20T04:28:31.622Z,23.80
2023-03-20T04:31:21.599Z,20.90
2023-03-20T04:34:29.508Z,20.65
2023-03-20T04:37:10.598Z,20.88
2023-03-20T04:39:51.120Z,20.10
2023-03-20T04:42:19.801Z,21.40
2023-03-20T04:44:49.917Z,23.15
2023-03-20T04:47:19.153Z,21.52
2023-03-20T04:49:48.014Z,22.77
2023-03-20T04:52:19.936Z,22.13
2023-03-20T04:54:48.790Z,22.52
2023-03-20T04:57:20.138Z,23.67
2023-03-20T04:59:50.706Z,24.05
2023-03-20T05:02:19.917Z,23.83
2023-03-20T05:04:48.567Z,23.48
2023-03-20T05:07:17.238Z,25.70
2023-03-20T05:10:01.472Z,22.15
2023-03-20T05:12:33.404Z,22.45
2023-03-20T05:15:13.284Z,23.25
2023-03-20T05:18:02.430Z,25.33
2023-03-20T05:20:54.744Z,22.08
2023-03-20T05:23:45.766Z,23.17
2023-03-20T05:26:25.477Z,27.35
2023-03-20T05:29:13.251Z,25.38
2023-03-20T05:32:05.567Z,23.33
2023-03-20T05:34:55.611Z,28.17
2023-03-20T05:37:33.179Z,24.70
2023-03-20T05:40:16.886Z,23.80
2023-03-20T05:43:01.359Z,25.50
2023-03-20T05:45:39.089Z,23.88
2023-03-20T05:48:21.950Z,22.95
2023-03-20T05:51:16.862Z,23.58
2023-03-20T05:53:54.858Z,28.05
2023-03-20T05:56:35.572Z,25.65
2023-03-20T05:59:22.835Z,25.85
2023-03-20T06:02:11.964Z,24.58
2023-03-20T06:04:47.524Z,33.22
2023-03-20T06:07:46.420Z,31.38
2023-03-20T06:10:17.782Z,31.85
2023-03-20T06:12:46.685Z,33.22
2023-03-20T06:15:16.409Z,32.75
2023-03-20T06:17:51.420Z,30.40
2023-03-20T06:20:21.856Z,30.70
2023-03-20T06:22:50.279Z,35.08
2023-03-20T06:25:19.849Z,31.73
2023-03-20T06:27:48.971Z,34.10
2023-03-20T06:30:18.600Z,30.42
2023-03-20T06:32:48.577Z,34.80
2023-03-20T06:35:20.104Z,33.15
2023-03-20T06:37:54.200Z,34.53
2023-03-20T06:40:28.387Z,46.22
2023-03-20T06:42:57.579Z,35.03
2023-03-20T06:45:36.390Z,45.97
2023-03-20T06:48:10.031Z,35.40
2023-03-20T06:50:38.984Z,45.63
2023-03-20T06:53:13.790Z,35.25
2023-03-20T06:55:49.041Z,34.70
2023-03-20T06:58:17.914Z,36.95
2023-03-20T07:00:49.262Z,39.80
2023-03-20T07:03:18.001Z,32.92
2023-03-20T07:05:48.908Z,36.90
2023-03-20T07:08:20.106Z,30.55
2023-03-20T07:10:51.843Z,36.00
2023-03-20T07:13:20.843Z,29.63
2023-03-20T07:16:03.370Z,32.92
2023-03-20T07:18:38.313Z,28.38
2023-03-20T07:21:11.637Z,24.40
2023-03-20T07:23:46.871Z,27.00
2023-03-20T07:26:18.544Z,22.70
2023-03-20T07:28:48.099Z,25.13
2023-03-20T07:31:26.602Z,26.20
2023-03-20T07:34:05.591Z,22.17
2023-03-20T07:36:36.504Z,46.80
2023-03-20T07:39:07.350Z,16.20
2023-03-20T07:41:39.018Z,17.13
2023-03-20T07:44:11.004Z,16.38
2023-03-20T07:46:53.438Z,16.67
2023-03-20T07:49:25.351Z,15.80
2023-03-20T07:51:55.472Z,16.65
2023-03-20T07:54:26.394Z,16.48
2023-03-20T07:56:55.076Z,15.10
2023-03-20T07:59:23.990Z,16.08
2023-03-20T08:01:52.750Z,14.13
2023-03-20T08:04:23.275Z,13.73
2023-03-20T08:06:52.719Z,13.93
2023-03-20T08:09:21.564Z,17.20
2023-03-20T08:11:52.461Z,15.25
2023-03-20T08:14:25.249Z,14.07
2023-03-20T08:17:10.291Z,14.27
2023-03-20T08:19:41.786Z,14.02
2023-03-20T08:22:10.466Z,15.63
2023-03-20T08:24:39.966Z,13.38
2023-03-20T08:27:10.710Z,14.35
2023-03-20T08:29:39.812Z,16.73
2023-03-20T08:32:08.438Z,16.00
2023-03-20T08:34:37.109Z,16.48
2023-03-20T08:37:08.125Z,16.60
2023-03-20T08:39:36.996Z,15.02
2023-03-20T08:42:06.089Z,15.30
2023-03-20T08:44:36.063Z,16.38
2023-03-20T08:47:06.341Z,15.98
2023-03-20T08:49:35.042Z,16.90
2023-03-20T08:52:03.954Z,15.20
2023-03-20T08:54:33.969Z,16.88
2023-03-20T08:57:02.675Z,17.73
2023-03-20T08:59:31.628Z,23.48
2023-03-20T09:02:01.907Z,18.42
2023-03-20T09:04:31.128Z,27.58
2023-03-20T09:07:01.464Z,20.20
2023-03-20T09:09:30.689Z,20.90
2023-03-20T09:12:00.030Z,17.58
2023-03-20T09:14:29.989Z,17.75
2023-03-20T09:16:58.779Z,16.40
2023-03-20T09:19:30.717Z,17.27
2023-03-20T09:22:00.640Z,15.48
2023-03-20T09:24:31.787Z,15.75
2023-03-20T09:27:03.541Z,14.82
2023-03-20T09:29:33.155Z,13.38
2023-03-20T09:32:02.530Z,14.55
2023-03-20T09:34:32.843Z,13.95
2023-03-20T09:37:03.250Z,13.80
2023-03-20T09:39:32.135Z,12.30
2023-03-20T09:42:09.960Z,12.77
2023-03-20T09:44:52.049Z,12.98
2023-03-20T09:47:27.620Z,12.00
2023-03-20T09:50:10.964Z,12.45
2023-03-20T09:52:44.345Z,12.30
2023-03-20T09:55:17.086Z,12.35
2023-03-20T09:57:51.678Z,11.32
2023-03-20T10:00:24.547Z,11.20
2023-03-20T10:02:59.882Z,10.88
2023-03-20T10:05:32.995Z,11.23
2023-03-20T10:08:04.884Z,10.60
2023-03-20T10:10:47.485Z,11.63
2023-03-20T10:13:32.028Z,10.98
2023-03-20T10:16:12.711Z,11.18
2023-03-20T10:18:51.126Z,10.45
2023-03-20T10:21:29.892Z,10.63
2023-03-20T10:24:03.515Z,11.23
2023-03-20T10:26:35.409Z,10.18
2023-03-20T10:29:08.961Z,10.30
2023-03-20T10:31:44.894Z,9.98
2023-03-20T10:34:33.007Z,9.88
2023-03-20T10:37:17.940Z,9.80
2023-03-20T10:39:56.526Z,9.80
2023-03-20T10:42:30.245Z,9.48
2023-03-20T10:45:03.636Z,9.85
2023-03-20T10:47:37.584Z,9.85
2023-03-20T10:50:12.696Z,8.32
2023-03-20T10:52:43.760Z,8.32
2023-03-20T10:55:17.368Z,6.90
2023-03-20T10:57:52.380Z,6.88
2023-03-20T11:00:24.450Z,6.53
2023-03-20T11:02:53.502Z,5.50
2023-03-20T11:05:26.658Z,5.75
2023-03-20T11:19:15.761Z,7.80
2023-03-20T11:21:50.425Z,7.70
2023-03-20T11:24:38.207Z,7.95
2023-03-20T11:27:09.032Z,7.82
2023-03-20T11:29:39.108Z,8.10
2023-03-20T11:32:13.829Z,8.15
2023-03-20T11:34:43.619Z,8.80
2023-03-20T11:37:24.101Z,8.93
2023-03-20T11:40:00.667Z,8.27
2023-03-20T11:42:31.856Z,8.43
2023-03-20T11:45:07.620Z,9.20
2023-03-20T11:47:37.466Z,8.98
2023-03-20T11:50:07.758Z,8.55
2023-03-20T11:52:38.870Z,7.85
2023-03-20T11:55:26.443Z,6.47
2023-03-20T11:57:58.738Z,6.47
2023-03-20T12:00:30.625Z,6.13
2023-03-20T12:02:59.014Z,6.78
2023-03-20T12:05:34.218Z,7.00
2023-03-20T12:08:10.012Z,7.20
2023-03-20T12:10:45.011Z,6.00
2023-03-20T12:13:18.383Z,6.60
2023-03-20T12:15:51.049Z,6.35
2023-03-20T12:18:28.713Z,7.45
2023-03-20T12:21:08.676Z,7.05
2023-03-20T12:23:42.171Z,7.60
2023-03-20T12:26:16.302Z,7.13
2023-03-20T12:28:51.995Z,7.82
2023-03-20T12:31:28.078Z,7.68
2023-03-20T12:34:01.586Z,8.32
2023-03-20T12:36:34.055Z,7.90
2023-03-20T12:39:05.057Z,8.38
2023-03-20T12:41:42.807Z,9.27
2023-03-20T12:44:26.272Z,9.15
2023-03-20T12:47:08.533Z,8.10
2023-03-20T12:49:48.491Z,9.10
2023-03-20T12:52:24.854Z,8.68
2023-03-20T12:55:18.307Z,10.30
2023-03-20T12:58:02.858Z,8.90
2023-03-20T13:00:36.523Z,8.95
2023-03-20T13:03:20.571Z,7.95
2023-03-20T13:05:54.373Z,8.90
2023-03-20T13:08:53.089Z,9.00
2023-03-20T13:11:32.692Z,8.70
2023-03-20T13:14:07.970Z,8.98
2023-03-20T13:16:47.357Z,9.10
2023-03-20T13:19:27.190Z,9.95
2023-03-20T13:22:02.301Z,9.55
2023-03-20T13:24:40.296Z,9.02
2023-03-20T13:27:30.696Z,8.73
2023-03-20T13:30:05.137Z,8.30
2023-03-20T13:32:47.185Z,8.48
2023-03-20T13:38:02.246Z,8.18
2023-03-20T13:43:19.475Z,7.95
2023-03-20T13:45:53.022Z,9.43
2023-03-20T13:48:30.881Z,9.52
2023-03-20T13:51:10.962Z,9.02
2023-03-20T13:53:50.009Z,9.65
2023-03-20T13:56:29.971Z,9.10
2023-03-20T13:59:15.920Z,9.60
2023-03-20T14:01:52.165Z,8.25
2023-03-20T14:04:24.618Z,9.18
2023-03-20T14:06:55.596Z,8.80
2023-03-20T14:09:35.260Z,9.43
2023-03-20T14:12:18.427Z,8.80
2023-03-20T14:14:52.490Z,9.27
2023-03-20T14:19:52.749Z,8.77
2023-03-20T14:22:24.013Z,9.07
2023-03-20T14:24:58.318Z,9.63
2023-03-20T14:27:43.177Z,9.77
2023-03-20T14:30:42.129Z,9.85
2023-03-20T14:33:43.073Z,9.98
2023-03-20T14:36:42.825Z,9.32
2023-03-20T14:39:24.412Z,9.13
2023-03-20T14:42:04.008Z,10.05
2023-03-20T14:44:49.420Z,10.23
2023-03-20T14:47:27.774Z,9.77
2023-03-20T14:50:04.753Z,10.20
2023-03-20T14:52:43.734Z,9.80
2023-03-20T14:55:34.337Z,10.10
2023-03-20T14:58:27.637Z,10.13
2023-03-20T15:00:56.706Z,10.50
2023-03-20T15:03:25.206Z,10.73
2023-03-20T15:06:00.699Z,10.55
2023-03-20T15:08:33.235Z,9.85
2023-03-20T15:13:36.425Z,11.40
2023-03-20T15:16:08.542Z,11.63
2023-03-20T15:18:52.789Z,11.18
2023-03-20T15:21:31.231Z,12.10
2023-03-20T15:24:00.614Z,11.45
2023-03-20T15:26:30.462Z,13.48
2023-03-20T15:29:03.182Z,13.55
2023-03-20T15:31:34.844Z,13.18
2023-03-20T15:34:06.427Z,13.05
2023-03-20T15:36:39.025Z,12.55
2023-03-20T15:39:14.476Z,13.95
2023-03-20T15:41:47.705Z,14.18
2023-03-20T15:44:22.312Z,13.15
2023-03-20T15:47:02.761Z,13.88
2023-03-20T15:49:33.957Z,13.15
2023-03-20T15:52:08.335Z,13.05
2023-03-20T15:54:37.609Z,12.73
2023-03-20T15:57:06.604Z,13.75
2023-03-20T15:59:35.987Z,13.75
2023-03-20T16:02:05.459Z,12.70
2023-03-20T16:04:34.297Z,12.82
2023-03-20T16:07:04.928Z,12.23
2023-03-20T16:09:44.982Z,12.27
2023-03-20T16:12:17.550Z,13.05
2023-03-20T16:14:48.566Z,12.60
2023-03-20T16:17:18.845Z,11.40
2023-03-20T16:19:47.475Z,12.35
2023-03-20T16:22:27.745Z,14.20
2023-03-20T16:25:00.299Z,11.35
2023-03-20T16:27:31.049Z,12.63
2023-03-20T16:29:59.821Z,12.40
2023-03-20T16:32:36.853Z,13.75
2023-03-20T16:35:12.147Z,12.45
2023-03-20T16:37:49.763Z,12.13
2023-03-20T16:40:22.596Z,12.68
2023-03-20T16:42:54.923Z,14.43
2023-03-20T16:48:22.481Z,15.65
2023-03-20T16:50:58.110Z,14.77
2023-03-20T16:53:30.969Z,14.07
2023-03-20T16:56:00.005Z,14.05
2023-03-20T16:58:31.023Z,13.13
2023-03-20T17:01:01.765Z,12.43
2023-03-20T17:03:36.529Z,12.47
2023-03-20T17:06:09.155Z,12.27
2023-03-20T17:08:42.767Z,12.18
2023-03-20T17:11:14.367Z,11.75
2023-03-20T17:13:43.493Z,13.02
2023-03-20T17:16:17.184Z,12.77
2023-03-20T17:18:46.685Z,12.57
2023-03-20T17:21:15.935Z,13.48
2023-03-20T17:23:45.996Z,13.90
2023-03-20T17:26:14.561Z,15.07
2023-03-20T17:28:43.526Z,14.68
2023-03-20T17:31:16.931Z,15.35
2023-03-20T17:33:47.085Z,16.00
2023-03-20T17:36:19.186Z,16.40
2023-03-20T17:38:49.332Z,15.57
2023-03-20T17:41:20.346Z,16.08
2023-03-20T17:43:51.494Z,16.10
2023-03-20T17:46:21.531Z,15.48
2023-03-20T17:48:51.835Z,14.70
2023-03-20T17:51:20.256Z,14.55
2023-03-20T17:53:55.405Z,16.42
2023-03-20T17:56:30.385Z,17.83
2023-03-20T17:59:00.071Z,19.30
2023-03-20T18:01:31.100Z,21.83
2023-03-20T18:04:01.070Z,21.00
2023-03-20T18:06:31.844Z,19.25
2023-03-20T18:09:02.716Z,23.50
2023-03-20T18:11:31.660Z,19.92
2023-03-20T18:14:02.151Z,19.30
2023-03-20T18:16:32.694Z,19.33
2023-03-20T18:19:02.808Z,18.90
2023-03-20T18:21:31.758Z,17.95
2023-03-20T18:24:01.612Z,18.80
2023-03-20T18:26:30.005Z,18.15
2023-03-20T18:28:59.543Z,20.33
2023-03-20T18:31:28.161Z,21.40
2023-03-20T18:33:56.925Z,24.10
2023-03-20T18:36:26.360Z,23.52
2023-03-20T18:38:56.120Z,22.50
2023-03-20T18:41:26.807Z,23.23
2023-03-20T18:43:56.731Z,24.83
2023-03-20T18:46:27.497Z,22.85
2023-03-20T18:48:58.198Z,23.10
2023-03-20T18:51:27.090Z,23.58
2023-03-20T18:53:56.060Z,23.95
2023-03-20T18:56:27.821Z,24.17
2023-03-20T18:58:56.513Z,24.08
2023-03-20T19:01:25.134Z,25.85
2023-03-20T19:03:54.034Z,24.85
2023-03-20T19:06:24.424Z,24.50
2023-03-20T19:08:53.556Z,23.98
2023-03-20T19:11:22.433Z,25.13
2023-03-20T19:13:54.496Z,23.17
2023-03-20T19:16:26.510Z,23.80
2023-03-20T19:18:56.407Z,23.70
2023-03-20T19:21:26.493Z,24.55
2023-03-20T19:23:55.641Z,25.98
2023-03-20T19:26:26.845Z,28.15
2023-03-20T19:28:58.312Z,28.23
2023-03-20T19:31:28.301Z,26.67
2023-03-20T19:33:57.367Z,26.30
2023-03-20T19:36:29.266Z,26.88
2023-03-20T19:38:59.640Z,29.25
2023-03-20T19:41:32.362Z,30.65
2023-03-20T19:44:02.473Z,34.72
2023-03-20T19:46:41.216Z,35.13
2023-03-20T19:49:18.979Z,33.65
2023-03-20T19:51:49.157Z,32.72
2023-03-20T19:54:18.665Z,30.80
2023-03-20T19:56:47.694Z,28.85
2023-03-20T19:59:17.962Z,27.73
2023-03-20T20:01:47.033Z,27.23
2023-03-20T20:04:16.841Z,25.35
2023-03-20T20:06:47.504Z,22.23
2023-03-20T20:09:16.770Z,24.42
2023-03-20T20:11:45.487Z,25.00
2023-03-20T20:14:15.339Z,24.05
2023-03-20T20:16:47.385Z,23.57
2023-03-20T20:19:16.564Z,22.58
2023-03-20T20:24:34.158Z,22.00
2023-03-20T20:27:16.317Z,22.13
2023-03-20T20:29:49.391Z,23.00
2023-03-20T20:32:20.970Z,22.57
2023-03-20T20:38:27.136Z,21.58
2023-03-20T20:40:33.132Z,20.67
2023-03-20T20:43:05.311Z,22.27
2023-03-20T20:45:38.104Z,19.85
2023-03-20T20:48:09.732Z,21.52
2023-03-20T20:50:39.326Z,20.80
2023-03-20T20:53:09.011Z,21.55
2023-03-20T20:55:38.029Z,23.00
2023-03-20T20:58:07.199Z,19.98
2023-03-20T21:00:49.543Z,21.17
2023-03-20T21:03:22.430Z,21.92
2023-03-20T21:05:51.350Z,21.08
2023-03-20T21:08:20.288Z,20.60
2023-03-20T21:10:50.565Z,23.33
2023-03-20T21:13:19.496Z,22.52
2023-03-20T21:15:48.457Z,21.77
2023-03-20T21:18:17.597Z,23.92
2023-03-20T21:20:47.960Z,22.50
2023-03-20T21:23:16.946Z,22.48
2023-03-20T21:25:47.970Z,20.75
2023-03-20T21:28:17.264Z,20.90
2023-03-20T21:31:12.512Z,22.10
2023-03-20T21:33:37.042Z,21.33
2023-03-20T21:36:08.366Z,20.13
2023-03-20T21:39:06.069Z,21.65
2023-03-20T21:41:26.075Z,21.27
2023-03-20T21:43:56.131Z,19.80
2023-03-20T21:47:10.349Z,19.38
2023-03-20T21:55:38.537Z,19.10
2023-03-20T21:58:29.178Z,19.60
2023-03-20T22:01:29.074Z,19.85
2023-03-20T22:03:52.025Z,18.65
2023-03-20T22:07:13.081Z,19.10
2023-03-20T22:18:12.160Z,17.52
2023-03-20T22:21:06.747Z,18.70
2023-03-20T22:23:56.138Z,18.63
2023-03-20T22:27:05.320Z,17.95
2023-03-20T22:32:27.667Z,18.10
2023-03-20T22:35:19.668Z,16.80
2023-03-20T22:40:53.611Z,17.80
2023-03-20T22:44:13.700Z,16.25
2023-03-20T22:46:05.396Z,16.13
2023-03-20T22:48:34.561Z,14.85
2023-03-20T22:51:03.851Z,15.38
2023-03-20T22:53:34.565Z,15.73
2023-03-20T22:56:04.566Z,15.95
2023-03-20T22:58:35.064Z,15.60
2023-03-20T23:01:04.030Z,14.20
2023-03-20T23:03:41.445Z,15.63
2023-03-20T23:06:16.770Z,14.45
2023-03-20T23:08:52.418Z,14.85
2023-03-20T23:11:25.357Z,14.38
2023-03-20T23:13:56.462Z,14.68
2023-03-20T23:16:25.895Z,15.40
2023-03-20T23:18:55.003Z,15.35
2023-03-20T23:21:24.515Z,15.60
2023-03-20T23:23:53.750Z,15.60
2023-03-20T23:26:23.488Z,16.98
2023-03-20T23:28:54.739Z,16.08
2023-03-20T23:31:25.258Z,15.65
2023-03-20T23:33:55.852Z,15.05
2023-03-20T23:36:36.097Z,14.00
2023-03-20T23:42:02.318Z,13.35
2023-03-20T23:44:26.490Z,12.43
2023-03-20T23:46:55.786Z,12.95
2023-03-20T23:49:24.572Z,12.75
2023-03-20T23:51:53.255Z,13.05
2023-03-20T23:54:21.847Z,11.80
2023-03-20T23:56:50.715Z,12.80
2023-03-20T23:59:21.821Z,12.38
